createdAt,value
2023-01-01T00:00:50.292Z,9.93
2023-01-01T00:03:18.163Z,9.53
2023-01-01T00:05:45.703Z,10.20
2023-01-01T00:08:13.435Z,10.10
2023-01-01T00:10:41.114Z,10.02
2023-01-01T00:13:12.238Z,9.80
2023-01-01T00:15:39.623Z,10.70
2023-01-01T00:18:07.450Z,11.45
2023-01-01T00:20:35.595Z,10.60
2023-01-01T00:23:03.859Z,10.45
2023-01-01T00:25:32.802Z,9.13
2023-01-01T00:28:00.171Z,8.67
2023-01-01T00:30:27.763Z,9.30
2023-01-01T00:32:56.240Z,9.93
2023-01-01T00:35:27.817Z,9.18
2023-01-01T00:37:56.258Z,8.68
2023-01-01T00:40:24.273Z,8.33
2023-01-01T00:42:51.840Z,8.73
2023-01-01T00:45:22.281Z,8.40
2023-01-01T00:47:54.475Z,7.68
2023-01-01T00:50:23.169Z,6.70
2023-01-01T00:52:50.933Z,7.40
2023-01-01T00:55:18.581Z,6.85
2023-01-01T00:57:46.196Z,6.53
2023-01-01T01:00:15.381Z,7.35
2023-01-01T01:02:43.270Z,7.88
2023-01-01T01:05:11.412Z,6.87
2023-01-01T01:07:40.112Z,6.88
2023-01-01T01:10:08.477Z,7.05
2023-01-01T01:12:36.599Z,6.32
2023-01-01T01:15:05.454Z,6.78
2023-01-01T01:17:33.676Z,7.10
2023-01-01T01:20:01.458Z,6.60
2023-01-01T01:22:29.427Z,7.93
2023-01-01T01:24:57.509Z,7.78
2023-01-01T01:27:25.389Z,6.97
2023-01-01T01:29:53.469Z,6.67
2023-01-01T01:32:21.595Z,7.30
2023-01-01T01:34:49.406Z,6.65
2023-01-01T01:37:18.566Z,7.50
2023-01-01T01:39:53.780Z,6.95
2023-01-01T01:42:22.190Z,8.40
2023-01-01T01:45:00.379Z,8.18
2023-01-01T01:47:47.094Z,8.18
2023-01-01T01:50:16.629Z,7.70
2023-01-01T01:53:05.483Z,7.05
2023-01-01T01:55:36.400Z,7.70
2023-01-01T01:58:06.477Z,7.28
2023-01-01T02:00:33.946Z,7.53
2023-01-01T02:03:08.478Z,7.85
2023-01-01T02:05:36.491Z,7.80
2023-01-01T02:08:05.944Z,8.27
2023-01-01T02:10:33.709Z,7.78
2023-01-01T02:13:01.721Z,8.68
2023-01-01T02:15:35.255Z,7.60
2023-01-01T02:18:15.416Z,7.88
2023-01-01T02:20:49.807Z,6.40
2023-01-01T02:23:32.357Z,7.03
2023-01-01T02:26:38.962Z,6.80
2023-01-01T02:29:18.352Z,7.18
2023-01-01T02:31:54.562Z,7.10
2023-01-01T02:34:27.577Z,7.37
2023-01-01T02:36:57.065Z,7.32
2023-01-01T02:39:29.732Z,7.10
2023-01-01T02:41:59.445Z,7.43
2023-01-01T02:44:30.168Z,6.93
2023-01-01T02:46:57.648Z,7.47
2023-01-01T02:49:26.893Z,7.35
2023-01-01T02:52:02.958Z,7.00
2023-01-01T02:54:56.541Z,7.60
2023-01-01T02:57:43.578Z,6.68
2023-01-01T03:00:24.645Z,6.80
2023-01-01T03:03:40.164Z,7.18
2023-01-01T03:06:26.646Z,7.95
2023-01-01T03:09:16.497Z,6.78
2023-01-01T03:11:48.719Z,7.50
2023-01-01T03:14:28.261Z,7.60
2023-01-01T03:17:06.358Z,7.47
2023-01-01T03:19:38.362Z,8.10
2023-01-01T03:22:12.806Z,7.72
2023-01-01T03:24:49.039Z,8.40
2023-01-01T03:27:25.879Z,8.67
2023-01-01T03:29:56.993Z,8.57
2023-01-01T03:32:49.921Z,8.70
2023-01-01T03:35:20.002Z,9.10
2023-01-01T03:37:50.365Z,9.52
2023-01-01T03:40:20.918Z,9.67
2023-01-01T03:42:56.916Z,9.52
2023-01-01T03:45:31.451Z,10.10
2023-01-01T03:47:59.370Z,9.13
2023-01-01T03:50:37.843Z,10.82
2023-01-01T03:53:18.030Z,10.27
2023-01-01T03:55:58.520Z,10.73
2023-01-01T03:58:35.909Z,9.23
2023-01-01T04:01:13.043Z,9.02
2023-01-01T04:03:41.983Z,9.40
2023-01-01T04:06:12.043Z,9.43
2023-01-01T04:08:39.734Z,8.50
2023-01-01T04:11:35.046Z,9.35
2023-01-01T04:14:02.822Z,9.88
2023-01-01T04:16:30.478Z,9.93
2023-01-01T04:18:58.622Z,10.63
2023-01-01T04:21:26.459Z,10.85
2023-01-01T04:23:53.868Z,11.55
2023-01-01T04:26:21.779Z,11.48
2023-01-01T04:28:49.161Z,12.00
2023-01-01T04:31:16.670Z,12.13
2023-01-01T04:33:44.177Z,12.50
2023-01-01T04:36:11.730Z,13.65
2023-01-01T04:38:39.172Z,12.70
2023-01-01T04:41:06.618Z,13.50
2023-01-01T04:43:33.971Z,13.87
2023-01-01T04:46:03.870Z,14.02
2023-01-01T04:48:32.466Z,14.07
2023-01-01T04:51:02.895Z,14.57
2023-01-01T04:53:32.940Z,13.30
2023-01-01T04:56:20.711Z,13.20
2023-01-01T04:58:48.999Z,13.05
2023-01-01T05:01:24.771Z,13.25
2023-01-01T05:03:52.663Z,12.77
2023-01-01T05:06:21.372Z,13.52
2023-01-01T05:08:50.434Z,12.47
2023-01-01T05:11:28.838Z,12.02
2023-01-01T05:13:59.224Z,11.30
2023-01-01T05:16:32.775Z,10.13
2023-01-01T05:19:01.041Z,9.90
2023-01-01T05:21:34.280Z,8.90
2023-01-01T05:24:06.522Z,8.95
2023-01-01T05:26:37.788Z,8.80
2023-01-01T05:29:10.299Z,8.20
2023-01-01T05:31:43.608Z,8.32
2023-01-01T05:34:11.162Z,8.37
2023-01-01T05:36:39.481Z,7.72
2023-01-01T05:39:12.300Z,8.02
2023-01-01T05:41:41.031Z,7.82
2023-01-01T05:44:10.035Z,7.63
2023-01-01T05:46:39.253Z,8.10
2023-01-01T05:49:06.744Z,6.68
2023-01-01T05:54:01.081Z,7.00
2023-01-01T05:56:29.697Z,7.78
2023-01-01T05:58:57.785Z,6.87
2023-01-01T06:01:29.441Z,6.97
2023-01-01T06:03:58.579Z,7.13
2023-01-01T06:06:31.358Z,6.70
2023-01-01T06:09:00.768Z,6.63
2023-01-01T06:11:29.235Z,7.23
2023-01-01T06:13:58.575Z,6.40
2023-01-01T06:16:28.369Z,6.55
2023-01-01T06:18:56.965Z,6.40
2023-01-01T06:21:27.553Z,6.32
2023-01-01T06:23:57.895Z,5.50
2023-01-01T06:26:28.561Z,6.60
2023-01-01T06:29:01.125Z,5.68
2023-01-01T06:31:34.031Z,6.55
2023-01-01T06:34:07.820Z,6.22
2023-01-01T06:36:36.275Z,5.83
2023-01-01T06:39:04.138Z,5.65
2023-01-01T06:41:32.134Z,6.82
2023-01-01T06:44:01.415Z,6.78
2023-01-01T06:46:34.060Z,6.88
2023-01-01T06:49:11.461Z,6.63
2023-01-01T06:51:41.392Z,6.38
2023-01-01T06:54:09.655Z,6.68
2023-01-01T06:56:37.781Z,7.63
2023-01-01T06:59:06.424Z,7.97
2023-01-01T07:01:36.223Z,8.20
2023-01-01T07:04:06.690Z,7.95
2023-01-01T07:06:35.479Z,10.02
2023-01-01T07:09:04.373Z,9.00
2023-01-01T07:11:36.065Z,8.27
2023-01-01T07:14:04.681Z,8.50
2023-01-01T07:16:32.271Z,9.20
2023-01-01T07:19:01.314Z,9.10
2023-01-01T07:21:34.735Z,9.52
2023-01-01T07:24:06.738Z,9.70
2023-01-01T07:26:37.400Z,9.73
2023-01-01T07:29:07.892Z,9.70
2023-01-01T07:31:38.026Z,9.30
2023-01-01T07:34:06.865Z,9.93
2023-01-01T07:36:34.926Z,10.10
2023-01-01T07:39:02.492Z,10.47
2023-01-01T07:41:30.259Z,10.07
2023-01-01T07:44:00.878Z,11.00
2023-01-01T07:46:28.569Z,10.75
2023-01-01T07:48:56.774Z,10.27
2023-01-01T07:51:24.398Z,10.10
2023-01-01T07:53:51.899Z,9.80
2023-01-01T07:56:21.943Z,9.30
2023-01-01T07:58:50.673Z,9.10
2023-01-01T08:01:19.539Z,9.48
2023-01-01T08:03:53.343Z,8.83
2023-01-01T08:06:23.490Z,8.73
2023-01-01T08:08:50.898Z,8.80
2023-01-01T08:11:18.376Z,7.93
2023-01-01T08:13:45.888Z,8.23
2023-01-01T08:16:13.737Z,7.93
2023-01-01T08:18:41.100Z,8.18
2023-01-01T08:21:13.260Z,8.15
2023-01-01T08:23:40.626Z,8.13
2023-01-01T08:26:08.426Z,8.20
2023-01-01T08:28:36.434Z,7.67
2023-01-01T08:31:04.122Z,8.02
2023-01-01T08:33:31.532Z,8.90
2023-01-01T08:35:59.458Z,8.40
2023-01-01T08:38:29.892Z,8.32
2023-01-01T08:40:57.304Z,9.07
2023-01-01T08:43:25.315Z,8.65
2023-01-01T08:45:55.462Z,8.70
2023-01-01T08:48:30.690Z,7.82
2023-01-01T08:51:03.419Z,7.70
2023-01-01T08:53:33.232Z,7.67
2023-01-01T08:56:07.640Z,7.82
2023-01-01T08:58:37.823Z,7.20
2023-01-01T09:01:07.004Z,6.85
2023-01-01T09:03:37.750Z,6.28
2023-01-01T09:06:05.538Z,6.53
2023-01-01T09:08:33.079Z,5.30
2023-01-01T09:11:02.582Z,6.13
2023-01-01T09:13:31.833Z,6.03
2023-01-01T09:16:01.357Z,6.18
2023-01-01T09:18:29.003Z,5.80
2023-01-01T09:20:56.614Z,6.25
2023-01-01T09:23:24.205Z,5.70
2023-01-01T09:25:56.376Z,6.05
2023-01-01T09:28:26.154Z,6.13
2023-01-01T09:30:53.679Z,5.77
2023-01-01T09:33:21.141Z,5.75
2023-01-01T09:35:48.593Z,6.22
2023-01-01T09:38:15.990Z,6.18
2023-01-01T09:40:57.963Z,5.85
2023-01-01T09:44:10.150Z,5.63
2023-01-01T09:46:40.095Z,5.40
2023-01-01T09:49:18.071Z,5.88
2023-01-01T09:51:57.722Z,5.95
2023-01-01T09:54:38.366Z,5.75
2023-01-01T09:57:16.300Z,7.00
2023-01-01T09:59:47.015Z,6.30
2023-01-01T10:02:39.644Z,6.53
2023-01-01T10:05:18.768Z,6.43
2023-01-01T10:08:29.178Z,6.57
2023-01-01T10:11:08.512Z,6.10
2023-01-01T10:13:44.104Z,8.68
2023-01-01T10:16:24.579Z,5.68
2023-01-01T10:18:57.242Z,6.38
2023-01-01T10:21:27.431Z,6.68
2023-01-01T10:24:05.050Z,6.03
2023-01-01T10:26:35.819Z,22.20
2023-01-01T10:29:17.056Z,22.58
2023-01-01T10:31:48.274Z,25.88
2023-01-01T10:34:20.870Z,25.05
2023-01-01T10:36:49.361Z,21.80
2023-01-01T10:39:18.531Z,21.10
2023-01-01T10:41:49.649Z,22.75
2023-01-01T10:44:26.498Z,30.25
2023-01-01T10:46:58.798Z,23.02
2023-01-01T10:49:27.239Z,29.83
2023-01-01T10:51:58.623Z,22.45
2023-01-01T10:54:31.682Z,20.60
2023-01-01T10:57:13.596Z,21.00
2023-01-01T10:59:48.119Z,22.38
2023-01-01T11:02:23.755Z,21.37
2023-01-01T11:04:52.949Z,21.35
2023-01-01T11:07:29.211Z,21.02
2023-01-01T11:10:07.126Z,20.55
2023-01-01T11:15:45.271Z,22.57
2023-01-01T11:18:25.743Z,23.02
2023-01-01T11:20:58.362Z,22.83
2023-01-01T11:23:38.563Z,23.85
2023-01-01T11:26:18.188Z,22.88
2023-01-01T11:29:14.635Z,24.60
2023-01-01T11:31:44.797Z,25.83
2023-01-01T11:34:32.675Z,26.55
2023-01-01T11:37:30.569Z,24.15
2023-01-01T11:39:59.480Z,24.80
2023-01-01T11:42:29.279Z,24.13
2023-01-01T11:44:58.802Z,23.65
2023-01-01T11:47:40.394Z,25.30
2023-01-01T11:50:30.778Z,24.95
2023-01-01T11:53:17.024Z,24.30
2023-01-01T11:56:09.770Z,22.67
2023-01-01T11:58:37.149Z,25.15
2023-01-01T12:01:31.188Z,23.52
2023-01-01T12:04:13.398Z,23.48
2023-01-01T12:06:47.965Z,24.70
2023-01-01T12:09:46.342Z,23.50
2023-01-01T12:12:44.627Z,25.88
2023-01-01T12:15:22.530Z,27.42
2023-01-01T12:18:05.770Z,26.77
2023-01-01T12:20:37.887Z,27.48
2023-01-01T12:23:05.479Z,28.20
2023-01-01T12:25:39.714Z,26.83
2023-01-01T12:28:36.757Z,29.80
2023-01-01T12:31:14.757Z,28.02
2023-01-01T12:34:00.567Z,27.30
2023-01-01T12:37:00.774Z,27.90
2023-01-01T12:40:00.954Z,26.83
2023-01-01T12:42:59.395Z,31.08
2023-01-01T12:45:45.472Z,63.55
2023-01-01T12:48:31.247Z,144.52
2023-01-01T12:51:11.499Z,615.93
2023-01-01T12:54:09.153Z,213.48
2023-01-01T12:56:46.948Z,230.00
2023-01-01T12:59:29.015Z,97.22
2023-01-01T13:02:00.949Z,30.92
2023-01-01T13:04:28.795Z,34.93
2023-01-01T13:07:04.657Z,29.25
2023-01-01T13:09:46.163Z,31.23
2023-01-01T13:12:21.104Z,29.25
2023-01-01T13:14:52.258Z,33.45
2023-01-01T13:17:29.093Z,35.67
2023-01-01T13:20:15.026Z,65.53
2023-01-01T13:22:44.540Z,43.40
2023-01-01T13:25:11.969Z,55.67
2023-01-01T13:27:58.298Z,28.02
2023-01-01T13:30:43.693Z,92.20
2023-01-01T13:33:27.457Z,85.93
2023-01-01T13:36:13.172Z,197.40
2023-01-01T13:38:50.035Z,77.80
2023-01-01T13:41:37.394Z,99.82
2023-01-01T13:44:04.803Z,87.30
2023-01-01T13:46:32.233Z,30.38
2023-01-01T13:49:36.594Z,140.18
2023-01-01T13:52:24.701Z,139.63
2023-01-01T13:55:30.414Z,341.23
2023-01-01T13:58:44.807Z,539.03
2023-01-01T14:01:26.088Z,264.40
2023-01-01T14:03:56.187Z,167.23
2023-01-01T14:06:39.672Z,239.05
2023-01-01T14:09:13.378Z,224.30
2023-01-01T14:11:41.512Z,262.23
2023-01-01T14:14:37.006Z,199.35
2023-01-01T14:17:07.855Z,47.22
2023-01-01T14:19:36.222Z,51.55
2023-01-01T14:22:08.786Z,68.35
2023-01-01T14:24:45.357Z,196.73
2023-01-01T14:27:22.088Z,120.82
2023-01-01T14:29:52.404Z,121.22
2023-01-01T14:32:25.571Z,256.65
2023-01-01T14:35:02.156Z,207.07
2023-01-01T14:37:29.648Z,219.47
2023-01-01T14:40:28.828Z,33.90
2023-01-01T14:43:05.604Z,77.88
2023-01-01T14:45:36.558Z,36.60
2023-01-01T14:48:05.781Z,27.88
2023-01-01T14:50:36.874Z,225.07
2023-01-01T14:53:09.163Z,70.22
2023-01-01T14:55:42.813Z,56.33
2023-01-01T14:58:18.929Z,43.15
2023-01-01T15:00:47.400Z,28.67
2023-01-01T15:03:21.329Z,24.37
2023-01-01T15:06:01.714Z,25.63
2023-01-01T15:08:29.819Z,21.80
2023-01-01T15:10:57.653Z,22.42
2023-01-01T15:13:28.081Z,23.70
2023-01-01T15:15:58.058Z,22.83
2023-01-01T15:18:42.855Z,22.80
2023-01-01T15:21:15.847Z,28.85
2023-01-01T15:23:54.615Z,28.58
2023-01-01T15:26:34.794Z,24.65
2023-01-01T15:29:02.511Z,23.90
2023-01-01T15:32:22.677Z,25.70
2023-01-01T15:34:52.489Z,25.70
2023-01-01T15:37:38.933Z,25.85
2023-01-01T15:40:15.378Z,27.15
2023-01-01T15:43:11.899Z,26.60
2023-01-01T15:45:41.674Z,27.48
2023-01-01T15:48:12.635Z,28.23
2023-01-01T15:50:44.579Z,27.95
2023-01-01T15:53:29.827Z,27.88
2023-01-01T15:56:17.387Z,25.73
2023-01-01T15:58:54.276Z,27.83
2023-01-01T16:01:25.410Z,27.63
2023-01-01T16:04:22.060Z,27.27
2023-01-01T16:06:55.762Z,26.98
2023-01-01T16:09:23.369Z,26.77
2023-01-01T16:11:56.164Z,21.00
2023-01-01T16:14:24.275Z,16.10
2023-01-01T16:16:58.286Z,16.13
2023-01-01T16:19:26.990Z,19.00
2023-01-01T16:21:54.419Z,18.43
2023-01-01T16:24:21.901Z,13.95
2023-01-01T16:26:50.719Z,13.13
2023-01-01T16:29:18.612Z,13.18
2023-01-01T16:31:48.291Z,13.95
2023-01-01T16:34:15.893Z,13.43
2023-01-01T16:36:44.444Z,12.38
2023-01-01T16:39:12.620Z,12.20
2023-01-01T16:41:44.409Z,12.30
2023-01-01T16:44:16.749Z,11.55
2023-01-01T16:46:44.755Z,11.93
2023-01-01T16:49:12.475Z,12.30
2023-01-01T16:51:43.871Z,11.57
2023-01-01T16:54:12.484Z,12.75
2023-01-01T16:56:40.178Z,12.30
2023-01-01T16:59:07.648Z,12.10
2023-01-01T17:01:35.289Z,11.20
2023-01-01T17:04:02.886Z,11.73
2023-01-01T17:06:30.652Z,12.32
2023-01-01T17:09:01.125Z,11.80
2023-01-01T17:11:28.951Z,12.70
2023-01-01T17:13:59.103Z,14.65
2023-01-01T17:16:36.471Z,17.75
2023-01-01T17:19:21.669Z,16.58
2023-01-01T17:21:50.527Z,13.57
2023-01-01T17:24:20.076Z,13.23
2023-01-01T17:26:51.981Z,13.52
2023-01-01T17:29:20.525Z,13.20
2023-01-01T17:31:48.013Z,11.35
2023-01-01T17:34:16.172Z,12.35
2023-01-01T17:36:44.712Z,13.20
2023-01-01T17:39:15.757Z,12.82
2023-01-01T17:41:44.728Z,12.00
2023-01-01T17:44:13.328Z,11.18
2023-01-01T17:46:40.977Z,10.40
2023-01-01T17:49:09.607Z,11.67
2023-01-01T17:51:37.501Z,10.70
2023-01-01T17:54:07.409Z,10.27
2023-01-01T17:56:34.870Z,11.13
2023-01-01T17:59:02.316Z,13.77
2023-01-01T18:01:32.350Z,13.60
2023-01-01T18:04:04.789Z,15.52
2023-01-01T18:06:37.355Z,17.17
2023-01-01T18:09:12.726Z,18.35
2023-01-01T18:11:43.908Z,18.73
2023-01-01T18:14:16.342Z,15.70
2023-01-01T18:16:47.333Z,17.77
2023-01-01T18:19:15.018Z,15.55
2023-01-01T18:22:08.417Z,17.40
2023-01-01T18:25:54.029Z,16.98
2023-01-01T18:28:27.076Z,15.53
2023-01-01T18:32:23.934Z,14.38
2023-01-01T18:48:58.842Z,12.10
2023-01-01T18:56:10.255Z,10.88
2023-01-01T18:59:51.464Z,23.10
2023-01-01T19:06:42.914Z,17.67
2023-01-01T19:09:40.055Z,13.75
2023-01-01T19:12:31.456Z,12.90
2023-01-01T19:15:37.003Z,14.20
2023-01-01T19:22:16.258Z,13.40
2023-01-01T19:25:11.172Z,14.38
2023-01-01T19:32:20.105Z,17.63
2023-01-01T19:35:31.264Z,22.60
2023-01-01T19:42:22.764Z,13.95
2023-01-01T19:45:20.348Z,13.40
2023-01-01T19:48:20.686Z,12.40
2023-01-01T19:51:09.583Z,12.10
2023-01-01T19:57:48.234Z,10.32
2023-01-01T20:00:58.997Z,10.05
2023-01-01T20:06:39.802Z,9.45
2023-01-01T20:09:53.461Z,8.80
2023-01-01T20:16:52.597Z,6.78
2023-01-01T20:20:23.706Z,5.78
2023-01-01T20:27:09.129Z,5.63
2023-01-01T20:29:52.846Z,4.80
2023-01-01T20:36:13.238Z,5.00
2023-01-01T20:38:51.325Z,5.40
2023-01-01T20:42:52.502Z,4.93
2023-01-01T20:49:20.929Z,5.95
2023-01-01T20:52:06.952Z,5.95
2023-01-01T20:55:02.073Z,5.03
2023-01-01T21:09:32.314Z,6.20
2023-01-01T21:12:56.877Z,5.97
2023-01-01T21:16:50.400Z,5.90
2023-01-01T21:20:22.027Z,6.75
2023-01-01T21:23:31.860Z,6.90
2023-01-01T21:27:36.225Z,6.90
2023-01-01T21:30:43.987Z,6.72
2023-01-01T21:33:27.569Z,5.90
2023-01-01T21:36:02.700Z,5.78
2023-01-01T21:39:08.831Z,6.45
2023-01-01T21:48:56.698Z,7.60
2023-01-01T21:51:51.057Z,7.68
2023-01-01T21:54:55.375Z,7.28
2023-01-01T21:57:49.072Z,7.65
2023-01-01T22:04:42.746Z,7.77
2023-01-01T22:10:39.297Z,6.80
2023-01-01T22:15:00.635Z,6.85
2023-01-01T22:17:03.169Z,6.40
2023-01-01T22:23:48.348Z,6.03
2023-01-01T22:26:26.781Z,5.72
2023-01-01T22:29:03.632Z,6.65
2023-01-01T22:31:33.672Z,6.38
2023-01-01T22:34:04.815Z,5.93
2023-01-01T22:37:24.756Z,6.65
2023-01-01T22:40:48.358Z,6.18
2023-01-01T22:43:50.918Z,6.43
2023-01-01T22:46:47.819Z,6.10
2023-01-01T22:49:30.789Z,6.03
2023-01-01T22:52:13.376Z,6.53
2023-01-01T22:55:36.501Z,6.38
2023-01-01T23:06:00.874Z,6.30
2023-01-01T23:23:49.114Z,6.80
2023-01-01T23:27:37.924Z,6.82
2023-01-01T23:30:12.311Z,6.88
2023-01-01T23:33:33.905Z,7.53
2023-01-01T23:55:57.179Z,6.72
